Time;durP1;ratioP1;P1;durP2;ratioP2;P2;SDS_P1;SDS_P2;PMS_P1;PMS_P2;Temp;Humidity;BMP_temperature;BMP_pressure;BME280_temperature;BME280_humidity;BME280_pressure;Samples;Min_cycle;Max_cycle;Signal;HPM_P1;HPM_P2
2023/12/05 00:01:10;;;;;;;48.88;27.42;;;0.30;99.90;;;;;;4958438;28;20050;-75
2023/12/05 00:03:36;;;;;;;34.28;19.77;;;0.30;99.90;;;;;;4934335;28;20054;-75
2023/12/05 00:06:09;;;;;;;37.10;21.58;;;0.30;99.90;;;;;;4970661;28;20034;-74
2023/12/05 00:08:36;;;;;;;42.88;23.52;;;0.30;99.90;;;;;;4970239;28;20054;-75
2023/12/05 00:11:07;;;;;;;51.85;28.25;;;0.30;99.90;;;;;;4955957;28;20607;-75
2023/12/05 00:13:34;;;;;;;30.88;18.50;;;0.30;99.90;;;;;;4966174;28;20061;-75
2023/12/05 00:16:01;;;;;;;47.47;25.58;;;0.30;99.90;;;;;;4935775;28;20038;-74
2023/12/05 00:18:28;;;;;;;49.42;27.05;;;0.30;99.90;;;;;;4943613;28;20042;-74
2023/12/05 00:20:55;;;;;;;46.75;26.02;;;0.30;99.90;;;;;;4947077;28;20043;-75
2023/12/05 00:23:23;;;;;;;37.17;22.73;;;0.30;99.90;;;;;;4971319;28;20117;-75
2023/12/05 00:25:49;;;;;;;49.10;25.65;;;0.30;99.90;;;;;;4960492;28;20049;-74
2023/12/05 00:28:16;;;;;;;45.22;26.45;;;0.40;99.90;;;;;;4952658;28;20504;-73
2023/12/05 00:30:43;;;;;;;45.65;24.38;;;0.40;99.90;;;;;;4948485;28;20043;-76
2023/12/05 00:33:10;;;;;;;35.92;20.88;;;0.40;99.90;;;;;;4959190;28;20116;-74
2023/12/05 00:35:39;;;;;;;42.70;22.88;;;0.40;99.90;;;;;;4949834;28;21257;-76
2023/12/05 00:38:06;;;;;;;46.53;26.30;;;0.40;99.90;;;;;;4937571;28;20043;-74
2023/12/05 00:40:33;;;;;;;45.63;25.80;;;0.40;99.90;;;;;;4949095;28;20168;-74
2023/12/05 00:43:00;;;;;;;42.00;23.73;;;0.40;99.90;;;;;;4932204;28;20058;-76
2023/12/05 00:45:26;;;;;;;48.83;26.90;;;0.40;99.90;;;;;;4953339;28;20035;-74
2023/12/05 00:47:53;;;;;;;44.30;24.73;;;0.40;99.90;;;;;;4936365;28;20803;-76
2023/12/05 00:50:20;;;;;;;39.95;23.45;;;0.40;99.90;;;;;;4930292;28;20047;-72
2023/12/05 00:52:53;;;;;;;44.20;24.52;;;0.40;99.90;;;;;;4939162;28;20065;-74
2023/12/05 00:55:21;;;;;;;38.28;22.23;;;0.40;99.90;;;;;;4954919;28;20065;-73
2023/12/05 00:57:48;;;;;;;30.38;19.27;;;0.40;99.90;;;;;;4959170;28;20043;-76
2023/12/05 01:00:15;;;;;;;40.90;25.15;;;0.40;99.90;;;;;;4943087;28;20034;-73
2023/12/05 01:02:42;;;;;;;40.10;20.83;;;0.50;99.90;;;;;;4954964;28;20957;-74
2023/12/05 01:05:09;;;;;;;38.33;24.50;;;0.50;99.90;;;;;;4994528;28;20054;-73
2023/12/05 01:07:36;;;;;;;34.17;20.52;;;0.50;99.90;;;;;;4980411;28;20110;-73
2023/12/05 01:10:03;;;;;;;44.30;24.73;;;0.50;99.90;;;;;;4983543;28;20129;-76
2023/12/05 01:12:30;;;;;;;29.70;19.08;;;0.50;99.90;;;;;;4952835;28;20056;-75
2023/12/05 01:15:00;;;;;;;41.40;24.42;;;0.60;99.90;;;;;;4956457;28;20077;-76
2023/12/05 01:17:27;;;;;;;45.22;24.58;;;0.50;99.90;;;;;;4941179;28;20054;-74
2023/12/05 01:19:54;;;;;;;28.00;19.70;;;0.50;99.90;;;;;;4973449;28;20148;-76
2023/12/05 01:22:21;;;;;;;35.92;19.20;;;0.50;99.90;;;;;;4958145;28;20113;-73
2023/12/05 01:24:54;;;;;;;44.70;22.23;;;0.50;99.90;;;;;;4974972;28;20045;-74
2023/12/05 01:27:22;;;;;;;28.60;17.65;;;0.50;99.90;;;;;;4954449;28;20053;-73
2023/12/05 01:29:49;;;;;;;37.45;19.67;;;0.50;99.90;;;;;;4950377;28;20049;-75
2023/12/05 01:32:15;;;;;;;42.25;24.25;;;0.60;99.90;;;;;;4955970;28;20464;-75
2023/12/05 01:34:42;;;;;;;38.78;21.13;;;0.60;99.90;;;;;;4955156;28;20073;-75
2023/12/05 01:37:09;;;;;;;41.88;20.52;;;0.60;99.90;;;;;;4944997;28;20142;-74
2023/12/05 01:39:36;;;;;;;38.13;23.55;;;0.60;99.90;;;;;;4975274;28;20053;-75
2023/12/05 01:42:04;;;;;;;32.30;20.52;;;0.60;99.90;;;;;;4956941;28;20047;-75
2023/12/05 01:44:30;;;;;;;40.50;22.80;;;0.60;99.90;;;;;;4950970;28;20713;-75
2023/12/05 01:46:59;;;;;;;35.65;19.77;;;0.60;99.90;;;;;;4960783;28;20061;-76
2023/12/05 01:49:26;;;;;;;36.50;21.83;;;0.60;99.90;;;;;;4976662;28;20174;-74
2023/12/05 01:51:57;;;;;;;38.83;21.92;;;0.60;99.90;;;;;;4967159;28;20071;-74
2023/12/05 01:54:26;;;;;;;35.90;21.58;;;0.60;99.90;;;;;;4950525;28;20047;-75
2023/12/05 01:56:55;;;;;;;34.70;21.80;;;0.60;99.90;;;;;;4956941;28;20085;-76
2023/12/05 01:59:22;;;;;;;37.45;24.38;;;0.70;99.90;;;;;;4957127;28;20605;-75
2023/12/05 02:01:50;;;;;;;38.53;22.77;;;0.70;99.90;;;;;;4957564;28;20059;-73
2023/12/05 02:04:17;;;;;;;42.00;24.00;;;0.70;99.90;;;;;;4947058;28;20054;-75
2023/12/05 02:06:48;;;;;;;40.80;25.92;;;0.80;99.90;;;;;;4952887;28;20110;-73
2023/12/05 02:09:16;;;;;;;38.95;24.33;;;0.80;99.90;;;;;;4945596;28;20113;-75
2023/12/05 02:11:43;;;;;;;41.53;24.25;;;0.90;99.90;;;;;;4970519;28;20042;-74
2023/12/05 02:14:10;;;;;;;29.10;18.05;;;0.80;99.90;;;;;;4937464;28;20145;-73
2023/12/05 02:16:53;;;;;;;43.05;24.25;;;0.90;99.90;;;;;;4969571;28;20046;-74
2023/12/05 02:19:39;;;;;;;39.53;23.45;;;0.80;99.90;;;;;;4956252;28;20113;-73
2023/12/05 02:22:12;;;;;;;32.15;19.85;;;0.80;99.90;;;;;;4969136;28;20045;-74
2023/12/05 02:25:01;;;;;;;41.28;23.77;;;0.80;99.90;;;;;;4952790;28;20123;-76
2023/12/05 02:27:38;;;;;;;41.30;24.33;;;0.90;99.90;;;;;;4971061;28;20039;-74
2023/12/05 02:30:05;;;;;;;41.28;23.42;;;0.90;99.90;;;;;;4947801;28;20132;-74
2023/12/05 02:32:32;;;;;;;39.15;22.25;;;0.90;99.90;;;;;;4940707;28;20050;-72
2023/12/05 02:34:59;;;;;;;41.78;23.65;;;0.90;99.90;;;;;;4953528;28;20046;-74
2023/12/05 02:37:40;;;;;;;37.85;21.70;;;0.90;99.90;;;;;;4953330;28;20053;-72
2023/12/05 02:40:21;;;;;;;43.33;24.33;;;0.90;99.90;;;;;;4943435;28;20137;-72
2023/12/05 02:42:50;;;;;;;41.63;24.10;;;0.90;99.90;;;;;;4948424;28;20109;-74
2023/12/05 02:45:20;;;;;;;41.88;24.10;;;0.90;99.90;;;;;;4972132;28;20104;-74
2023/12/05 02:47:49;;;;;;;44.90;23.73;;;0.90;99.90;;;;;;4955003;28;20053;-73
2023/12/05 02:50:17;;;;;;;35.67;21.10;;;1.00;99.90;;;;;;4972053;28;20062;-75
2023/12/05 02:52:44;;;;;;;44.63;23.60;;;0.90;99.90;;;;;;4941076;28;20038;-75
2023/12/05 02:55:11;;;;;;;42.22;24.27;;;0.90;99.90;;;;;;4945146;28;20046;-74
2023/12/05 02:57:38;;;;;;;39.75;23.80;;;0.90;99.90;;;;;;4952562;28;20050;-73
2023/12/05 03:00:06;;;;;;;39.35;24.42;;;0.90;99.90;;;;;;4956214;28;20078;-74
2023/12/05 03:02:33;;;;;;;39.03;24.48;;;1.00;99.90;;;;;;4957492;28;20038;-74
2023/12/05 03:04:59;;;;;;;46.35;25.52;;;1.00;99.90;;;;;;4954336;28;20046;-73
2023/12/05 03:07:27;;;;;;;46.08;27.48;;;0.90;99.90;;;;;;4969576;28;20596;-72
2023/12/05 03:09:54;;;;;;;40.58;23.70;;;1.00;99.90;;;;;;4958051;28;20046;-73
2023/12/05 03:12:21;;;;;;;43.65;25.70;;;1.00;99.90;;;;;;4971043;28;20641;-72
2023/12/05 03:14:48;;;;;;;38.80;24.35;;;1.00;99.90;;;;;;4949659;28;20138;-73
2023/12/05 03:17:14;;;;;;;33.28;21.92;;;1.00;99.90;;;;;;4954105;28;20034;-74
2023/12/05 03:19:41;;;;;;;45.58;27.05;;;0.90;99.90;;;;;;4954202;28;20082;-73
2023/12/05 03:22:08;;;;;;;44.50;25.98;;;1.00;99.90;;;;;;4960060;28;20046;-74
2023/12/05 03:24:35;;;;;;;33.83;19.98;;;1.00;99.90;;;;;;4951937;28;20111;-72
2023/12/05 03:27:02;;;;;;;38.50;23.52;;;1.00;99.90;;;;;;4954673;28;20046;-73
2023/12/05 03:29:29;;;;;;;33.45;18.80;;;1.00;99.90;;;;;;4964544;28;20053;-73
2023/12/05 03:31:55;;;;;;;40.47;23.05;;;1.00;99.90;;;;;;4969005;28;20054;-72
2023/12/05 03:34:23;;;;;;;41.20;23.83;;;1.00;99.90;;;;;;4965374;28;20050;-74
2023/12/05 03:36:49;;;;;;;27.95;17.45;;;1.00;99.90;;;;;;4967020;28;20658;-74
2023/12/05 03:39:16;;;;;;;42.33;22.92;;;1.00;99.90;;;;;;4940267;28;20505;-73
2023/12/05 03:41:45;;;;;;;33.50;20.20;;;1.00;99.90;;;;;;4939994;28;20049;-74
2023/12/05 03:44:12;;;;;;;41.83;24.90;;;1.00;99.90;;;;;;4935271;28;20046;-75
2023/12/05 03:46:39;;;;;;;40.13;25.35;;;1.00;99.90;;;;;;4936399;28;20043;-74
2023/12/05 03:49:06;;;;;;;42.45;25.33;;;1.10;99.90;;;;;;4958838;28;20049;-74
2023/12/05 03:51:33;;;;;;;41.53;25.20;;;1.10;99.90;;;;;;4943674;28;20046;-75
2023/12/05 03:53:59;;;;;;;48.10;26.65;;;1.10;99.90;;;;;;4975694;28;20053;-74
2023/12/05 03:56:26;;;;;;;37.67;22.63;;;1.10;99.90;;;;;;4957576;28;20069;-73
2023/12/05 03:58:53;;;;;;;52.13;29.35;;;1.00;99.90;;;;;;4970531;28;20054;-75
2023/12/05 04:01:20;;;;;;;43.78;26.80;;;1.00;99.90;;;;;;4938433;28;20509;-73
2023/12/05 04:03:47;;;;;;;46.55;26.60;;;1.10;99.90;;;;;;4972421;28;20050;-75
2023/12/05 04:06:21;;;;;;;51.08;27.80;;;1.00;99.90;;;;;;4956233;28;20061;-74
2023/12/05 04:08:49;;;;;;;46.07;26.43;;;1.10;99.90;;;;;;4950880;28;20073;-74
2023/12/05 04:11:16;;;;;;;45.63;23.63;;;1.10;99.90;;;;;;4951977;28;20416;-76
2023/12/05 04:13:43;;;;;;;47.33;25.20;;;1.10;99.90;;;;;;4944093;28;20047;-74
2023/12/05 04:16:10;;;;;;;42.20;24.45;;;1.10;99.90;;;;;;4950571;28;20473;-73
2023/12/05 04:18:37;;;;;;;49.25;27.00;;;1.10;99.90;;;;;;4934985;28;20035;-74
2023/12/05 04:21:05;;;;;;;48.15;27.55;;;1.10;99.90;;;;;;4976129;28;20038;-73
2023/12/05 04:23:31;;;;;;;39.97;23.23;;;1.10;99.90;;;;;;4942157;28;20100;-73
2023/12/05 04:25:58;;;;;;;45.60;25.55;;;1.10;99.90;;;;;;4960204;28;20137;-74
2023/12/05 04:28:26;;;;;;;38.78;24.10;;;1.10;99.90;;;;;;4967986;28;20436;-75
2023/12/05 04:30:53;;;;;;;37.05;22.65;;;1.10;99.90;;;;;;4954039;28;20057;-73
2023/12/05 04:33:20;;;;;;;36.08;22.50;;;1.10;99.90;;;;;;4946241;28;20058;-73
2023/12/05 04:35:47;;;;;;;29.15;18.65;;;1.10;99.90;;;;;;4951469;28;20481;-74
2023/12/05 04:38:15;;;;;;;39.40;24.20;;;1.10;99.90;;;;;;4944896;28;20046;-75
2023/12/05 04:40:42;;;;;;;38.67;22.73;;;1.10;99.90;;;;;;4959956;28;20050;-74
2023/12/05 04:43:09;;;;;;;38.38;21.63;;;1.10;99.90;;;;;;4976913;28;20117;-74
2023/12/05 04:45:35;;;;;;;38.65;24.70;;;1.10;99.90;;;;;;4968396;28;20030;-72
2023/12/05 04:48:03;;;;;;;44.38;26.42;;;1.10;99.90;;;;;;4991602;28;20046;-72
2023/12/05 04:50:30;;;;;;;41.60;23.30;;;1.10;99.90;;;;;;4979784;28;20073;-72
2023/12/05 04:52:57;;;;;;;43.90;26.60;;;1.10;99.90;;;;;;4979546;28;20042;-73
2023/12/05 04:55:24;;;;;;;39.05;23.95;;;1.10;99.90;;;;;;4948258;28;20146;-72
2023/12/05 04:57:50;;;;;;;41.97;23.05;;;1.10;99.90;;;;;;4960746;28;20047;-74
2023/12/05 05:00:18;;;;;;;40.35;24.90;;;1.10;99.90;;;;;;4958252;28;20137;-74
2023/12/05 05:02:45;;;;;;;38.85;23.95;;;1.10;99.90;;;;;;4957363;28;20131;-73
2023/12/05 05:05:13;;;;;;;45.53;26.60;;;1.10;99.90;;;;;;4972793;28;20042;-72
2023/12/05 05:07:40;;;;;;;39.92;23.75;;;1.20;99.90;;;;;;4940610;28;20528;-73
2023/12/05 05:10:07;;;;;;;41.05;26.08;;;1.20;99.90;;;;;;4971797;28;20069;-73
2023/12/05 05:12:34;;;;;;;42.50;23.50;;;1.10;99.90;;;;;;4952255;28;20065;-72
2023/12/05 05:15:01;;;;;;;40.08;24.90;;;1.10;99.90;;;;;;4958787;28;20138;-73
2023/12/05 05:17:28;;;;;;;34.50;20.88;;;1.10;99.90;;;;;;4959904;28;20050;-73
2023/12/05 05:19:55;;;;;;;38.78;24.25;;;1.20;99.90;;;;;;4971762;28;20050;-73
2023/12/05 05:22:22;;;;;;;40.85;22.70;;;1.30;99.90;;;;;;4946138;28;20127;-73
2023/12/05 05:24:49;;;;;;;38.20;23.45;;;1.20;99.90;;;;;;4973623;28;20133;-72
2023/12/05 05:27:16;;;;;;;38.53;23.73;;;1.30;99.90;;;;;;4945576;28;20053;-72
2023/12/05 05:29:43;;;;;;;35.33;22.45;;;1.30;99.90;;;;;;4963833;28;20105;-74
2023/12/05 05:32:10;;;;;;;36.85;22.50;;;1.30;99.90;;;;;;4961144;28;20046;-72
2023/12/05 05:34:37;;;;;;;33.67;21.10;;;1.20;99.90;;;;;;4937982;28;20043;-73
2023/12/05 05:37:04;;;;;;;30.60;19.08;;;1.30;99.90;;;;;;4963053;28;20061;-74
2023/12/05 05:39:31;;;;;;;29.25;18.30;;;1.30;99.90;;;;;;4957701;28;20213;-74
2023/12/05 05:41:57;;;;;;;32.63;19.80;;;1.30;99.90;;;;;;4947154;28;20513;-74
2023/12/05 05:44:24;;;;;;;32.25;20.38;;;1.30;99.90;;;;;;4972732;28;20050;-73
2023/12/05 05:46:51;;;;;;;30.88;21.00;;;1.30;99.90;;;;;;4949868;28;20555;-74
2023/12/05 05:49:18;;;;;;;34.20;20.58;;;1.30;99.90;;;;;;4958654;28;20058;-73
2023/12/05 05:51:45;;;;;;;28.52;18.27;;;1.40;99.90;;;;;;4940537;28;20536;-73
2023/12/05 05:54:12;;;;;;;35.33;20.75;;;1.40;99.90;;;;;;4954238;28;20902;-72
2023/12/05 05:56:41;;;;;;;46.67;26.80;;;1.40;99.90;;;;;;4955623;28;20101;-73
2023/12/05 05:59:08;;;;;;;43.17;26.40;;;1.40;99.90;;;;;;4944036;28;20054;-75
2023/12/05 06:01:35;;;;;;;47.03;26.98;;;1.40;99.90;;;;;;4959715;28;20050;-73
2023/12/05 06:04:02;;;;;;;51.35;27.77;;;1.40;99.90;;;;;;4958766;28;20087;-74
2023/12/05 06:06:29;;;;;;;44.00;24.92;;;1.50;99.90;;;;;;4955274;28;20046;-73
2023/12/05 06:08:56;;;;;;;39.03;20.25;;;1.50;99.90;;;;;;4957605;28;20077;-74
2023/12/05 06:11:23;;;;;;;46.22;26.27;;;1.50;99.90;;;;;;4949164;28;20715;-74
2023/12/05 06:13:50;;;;;;;50.90;27.85;;;1.50;99.90;;;;;;4959903;28;20068;-72
2023/12/05 06:16:16;;;;;;;48.40;26.70;;;1.50;99.90;;;;;;4970743;28;20050;-74
2023/12/05 06:18:44;;;;;;;49.28;27.00;;;1.50;99.90;;;;;;4959324;28;20069;-73
2023/12/05 06:21:10;;;;;;;48.75;28.02;;;1.50;99.90;;;;;;4966324;28;20042;-73
2023/12/05 06:23:40;;;;;;;45.20;23.17;;;1.50;99.90;;;;;;4959901;28;20046;-72
2023/12/05 06:26:07;;;;;;;43.10;24.75;;;1.60;99.90;;;;;;4954473;28;20538;-73
2023/12/05 06:28:34;;;;;;;46.40;25.70;;;1.50;99.90;;;;;;4950701;28;20050;-74
2023/12/05 06:31:00;;;;;;;39.03;23.95;;;1.60;99.90;;;;;;4956250;28;20065;-74
2023/12/05 06:33:27;;;;;;;47.75;28.20;;;1.60;99.90;;;;;;4962929;28;20051;-74
2023/12/05 06:35:55;;;;;;;37.60;24.08;;;1.60;99.90;;;;;;4955488;28;20046;-73
2023/12/05 06:38:21;;;;;;;56.05;27.67;;;1.60;99.90;;;;;;4971490;28;20074;-74
2023/12/05 06:40:48;;;;;;;49.97;26.90;;;1.60;99.90;;;;;;4958602;28;20035;-73
2023/12/05 06:43:15;;;;;;;44.50;27.45;;;1.70;99.90;;;;;;4974048;28;20045;-74
2023/12/05 06:45:42;;;;;;;43.38;27.25;;;1.70;99.90;;;;;;4953917;28;20657;-74
2023/12/05 06:48:09;;;;;;;48.38;27.58;;;1.70;99.90;;;;;;4939375;28;20054;-73
2023/12/05 06:50:36;;;;;;;42.67;26.73;;;1.70;99.90;;;;;;4944305;28;20620;-73
2023/12/05 06:53:02;;;;;;;41.80;25.23;;;1.70;99.90;;;;;;4971763;28;20050;-73
2023/12/05 06:55:29;;;;;;;48.40;27.40;;;1.70;99.90;;;;;;4973146;28;20096;-73
2023/12/05 06:57:56;;;;;;;45.10;24.80;;;1.80;99.90;;;;;;4953596;28;20050;-74
2023/12/05 07:00:24;;;;;;;42.65;21.90;;;1.80;99.90;;;;;;4960655;28;20187;-74
2023/12/05 07:02:50;;;;;;;45.85;25.55;;;1.80;99.90;;;;;;4933733;28;20046;-74
2023/12/05 07:05:17;;;;;;;46.63;25.45;;;1.80;99.90;;;;;;4960268;28;20066;-73
2023/12/05 07:07:44;;;;;;;47.92;27.50;;;1.80;99.90;;;;;;4943290;28;20050;-73
2023/12/05 07:10:11;;;;;;;48.55;25.85;;;1.80;99.90;;;;;;4963383;28;20045;-73
2023/12/05 07:12:38;;;;;;;47.85;25.95;;;1.80;99.90;;;;;;4939164;28;20062;-74
2023/12/05 07:15:10;;;;;;;53.30;26.70;;;1.80;99.90;;;;;;4974466;28;20069;-74
2023/12/05 07:17:37;;;;;;;40.95;22.05;;;1.80;99.90;;;;;;4954905;28;20051;-73
2023/12/05 07:20:05;;;;;;;50.03;27.38;;;1.90;99.90;;;;;;4977372;28;20045;-73
2023/12/05 07:22:33;;;;;;;41.28;21.70;;;1.90;99.90;;;;;;4966568;28;20049;-73
2023/12/05 07:24:59;;;;;;;47.45;23.70;;;1.90;99.90;;;;;;4975153;28;20043;-73
2023/12/05 07:27:26;;;;;;;48.60;25.02;;;1.90;99.90;;;;;;4972597;28;20047;-72
2023/12/05 07:29:53;;;;;;;36.83;20.30;;;1.90;99.90;;;;;;4952661;28;20038;-72
2023/12/05 07:32:20;;;;;;;47.33;23.58;;;1.90;99.90;;;;;;4960615;28;20137;-72
2023/12/05 07:34:49;;;;;;;50.63;23.88;;;1.90;99.90;;;;;;4969566;28;20049;-72
2023/12/05 07:37:16;;;;;;;48.58;23.90;;;1.90;99.90;;;;;;4966190;28;20132;-73
2023/12/05 07:39:43;;;;;;;48.28;25.85;;;2.00;99.90;;;;;;4970347;28;20516;-72
2023/12/05 07:42:09;;;;;;;43.58;21.92;;;2.00;99.90;;;;;;4954226;28;20555;-72
2023/12/05 07:44:36;;;;;;;49.63;27.27;;;1.90;99.90;;;;;;4970888;28;20132;-74
2023/12/05 07:47:07;;;;;;;50.60;25.23;;;1.90;99.90;;;;;;4947834;28;20048;-72
2023/12/05 07:49:34;;;;;;;46.97;24.05;;;2.00;99.90;;;;;;4955378;28;20042;-72
2023/12/05 07:52:01;;;;;;;51.42;26.20;;;2.10;99.90;;;;;;4957465;28;20128;-73
2023/12/05 07:54:28;;;;;;;40.30;24.02;;;2.00;99.90;;;;;;4948359;28;20138;-74
2023/12/05 07:56:56;;;;;;;52.78;28.05;;;2.00;99.90;;;;;;4971695;28;20055;-82
2023/12/05 07:59:22;;;;;;;49.25;26.08;;;2.10;99.90;;;;;;4959182;28;20192;-81
2023/12/05 08:01:49;;;;;;;50.58;27.98;;;2.10;99.90;;;;;;4965529;28;20105;-82
2023/12/05 08:04:16;;;;;;;54.28;29.77;;;2.10;99.90;;;;;;4984573;28;20049;-82
2023/12/05 08:06:43;;;;;;;53.08;27.27;;;2.20;99.90;;;;;;4956109;28;20042;-84
2023/12/05 08:09:10;;;;;;;52.85;27.55;;;2.20;99.90;;;;;;4948265;28;20146;-82
2023/12/05 08:11:38;;;;;;;54.50;28.95;;;2.30;99.90;;;;;;4969360;28;20054;-81
2023/12/05 08:14:05;;;;;;;61.05;27.23;;;2.20;99.90;;;;;;4942714;28;20952;-81
2023/12/05 08:16:32;;;;;;;47.17;27.63;;;2.30;99.90;;;;;;4962373;28;20058;-82
2023/12/05 08:18:59;;;;;;;49.15;28.27;;;2.30;99.90;;;;;;4967590;28;20646;-81
2023/12/05 08:21:26;;;;;;;43.60;25.33;;;2.40;99.90;;;;;;4949838;28;20528;-81
2023/12/05 08:23:53;;;;;;;42.28;25.17;;;2.30;99.90;;;;;;4949362;28;20082;-81
2023/12/05 08:26:20;;;;;;;44.25;25.50;;;2.40;99.90;;;;;;4966417;28;20050;-84
2023/12/05 08:28:46;;;;;;;47.97;24.75;;;2.40;99.90;;;;;;4984663;28;20317;-83
2023/12/05 08:31:13;;;;;;;45.53;27.33;;;2.40;99.90;;;;;;4975951;28;20030;-83
2023/12/05 08:33:40;;;;;;;48.22;27.67;;;2.50;99.90;;;;;;4989367;28;20133;-82
2023/12/05 08:36:08;;;;;;;47.92;27.65;;;2.50;99.90;;;;;;4972624;28;20122;-83
2023/12/05 08:38:35;;;;;;;47.15;25.95;;;2.60;99.90;;;;;;4977804;28;20101;-85
2023/12/05 08:41:02;;;;;;;54.13;29.23;;;2.70;99.90;;;;;;4961925;28;20056;-84
2023/12/05 08:43:29;;;;;;;41.10;26.23;;;2.70;99.90;;;;;;4963219;28;20149;-83
2023/12/05 08:45:56;;;;;;;43.88;25.45;;;2.70;99.90;;;;;;4961000;28;20038;-85
2023/12/05 08:48:23;;;;;;;44.58;28.17;;;2.70;99.90;;;;;;4956083;28;20121;-83
2023/12/05 08:50:50;;;;;;;45.25;27.83;;;2.70;99.90;;;;;;4971487;28;20074;-84
2023/12/05 08:53:17;;;;;;;45.08;27.25;;;2.80;99.90;;;;;;4961410;28;20076;-84
2023/12/05 08:55:43;;;;;;;48.10;28.35;;;2.70;99.90;;;;;;4967567;28;20046;-83
2023/12/05 08:58:11;;;;;;;45.85;27.70;;;2.70;99.90;;;;;;4970056;28;20129;-82
2023/12/05 09:00:37;;;;;;;41.00;27.63;;;2.80;99.90;;;;;;4963710;28;20050;-82
2023/12/05 09:03:04;;;;;;;48.92;30.58;;;2.80;99.90;;;;;;4947522;28;20105;-83
2023/12/05 09:05:31;;;;;;;50.30;29.63;;;2.80;99.90;;;;;;4951355;28;20897;-83
2023/12/05 09:07:58;;;;;;;48.70;29.65;;;2.80;99.90;;;;;;4966440;28;20046;-84
2023/12/05 09:10:25;;;;;;;51.95;31.45;;;2.90;99.90;;;;;;4958408;28;20048;-84
2023/12/05 09:12:53;;;;;;;47.83;30.13;;;2.80;99.90;;;;;;4946469;28;20089;-84
2023/12/05 09:15:20;;;;;;;49.70;27.33;;;2.90;99.90;;;;;;4950511;28;20059;-83
2023/12/05 09:17:48;;;;;;;43.50;28.98;;;2.90;99.90;;;;;;4956905;28;20609;-86
2023/12/05 09:20:16;;;;;;;51.13;31.90;;;2.90;99.90;;;;;;4970214;28;20062;-79
2023/12/05 09:22:42;;;;;;;49.75;29.50;;;3.00;99.90;;;;;;4958373;28;20038;-77
2023/12/05 09:25:09;;;;;;;47.63;30.95;;;2.90;99.90;;;;;;4963537;28;20050;-78
2023/12/05 09:27:36;;;;;;;46.38;27.45;;;3.00;99.90;;;;;;4962483;28;20472;-78
2023/12/05 09:30:04;;;;;;;28.80;20.63;;;3.00;99.90;;;;;;4964481;28;20548;-77
2023/12/05 09:32:30;;;;;;;36.65;21.38;;;3.00;99.90;;;;;;4972081;28;20078;-81
2023/12/05 09:34:57;;;;;;;60.83;36.05;;;3.00;99.90;;;;;;4950934;28;20057;-79
2023/12/05 09:37:24;;;;;;;40.60;25.02;;;3.00;99.90;;;;;;4952203;28;20142;-79
2023/12/05 09:39:51;;;;;;;40.20;25.45;;;3.10;99.90;;;;;;4965325;28;20045;-79
2023/12/05 09:42:19;;;;;;;36.50;24.27;;;3.10;99.90;;;;;;4941301;28;20541;-80
2023/12/05 09:44:49;;;;;;;34.17;24.42;;;3.10;99.90;;;;;;4957678;28;20109;-81
2023/12/05 09:47:20;;;;;;;34.33;24.13;;;3.30;99.90;;;;;;4945161;28;20064;-80
2023/12/05 09:49:47;;;;;;;40.38;26.90;;;3.30;99.90;;;;;;4945022;28;20133;-81
2023/12/05 09:52:15;;;;;;;45.90;30.65;;;3.30;99.90;;;;;;4961474;28;20600;-81
2023/12/05 09:54:43;;;;;;;39.30;26.50;;;3.30;99.90;;;;;;4968311;28;20081;-79
2023/12/05 09:57:14;;;;;;;36.00;25.48;;;3.30;99.90;;;;;;4960257;28;20054;-81
2023/12/05 09:59:41;;;;;;;31.20;23.08;;;3.40;99.90;;;;;;4959549;28;20046;-82
2023/12/05 10:02:08;;;;;;;30.92;23.25;;;3.30;99.90;;;;;;4963204;28;20105;-82
2023/12/05 10:04:44;;;;;;;37.13;26.23;;;3.30;99.90;;;;;;4965605;28;20198;-81
2023/12/05 10:07:13;;;;;;;32.22;23.25;;;3.30;99.90;;;;;;4961022;28;20057;-82
2023/12/05 10:09:41;;;;;;;30.95;24.73;;;3.30;99.90;;;;;;4955429;28;20122;-80
2023/12/05 10:12:10;;;;;;;37.63;24.40;;;3.30;99.90;;;;;;4947898;28;20108;-81
2023/12/05 10:14:38;;;;;;;33.60;24.02;;;3.30;99.90;;;;;;4949624;28;20054;-82
2023/12/05 10:17:06;;;;;;;33.42;26.17;;;3.30;99.90;;;;;;4964683;28;20053;-81
2023/12/05 10:19:33;;;;;;;33.97;23.67;;;3.40;99.90;;;;;;4959880;28;21315;-81
2023/12/05 10:22:02;;;;;;;31.60;23.00;;;3.30;99.90;;;;;;4951649;28;20405;-81
2023/12/05 10:24:43;;;;;;;34.33;23.25;;;3.30;99.90;;;;;;4961942;28;20051;-81
2023/12/05 10:27:11;;;;;;;28.63;20.98;;;3.30;99.90;;;;;;4958700;28;21311;-82
2023/12/05 10:29:39;;;;;;;29.75;21.40;;;3.30;99.90;;;;;;4944799;28;20047;-82
2023/12/05 10:32:10;;;;;;;41.55;28.60;;;3.30;99.90;;;;;;4958720;28;20114;-82
2023/12/05 10:34:48;;;;;;;33.38;23.92;;;3.30;99.90;;;;;;4965643;28;20054;-82
2023/12/05 10:37:26;;;;;;;34.83;24.70;;;3.30;99.90;;;;;;4978001;28;20058;-81
2023/12/05 10:39:58;;;;;;;43.47;32.35;;;3.30;99.90;;;;;;4967254;28;20124;-84
2023/12/05 10:42:27;;;;;;;29.75;22.38;;;3.40;99.90;;;;;;4954473;28;20034;-83
2023/12/05 10:44:54;;;;;;;34.03;24.52;;;3.40;99.90;;;;;;4952035;28;20053;-83
2023/12/05 10:47:33;;;;;;;30.98;23.75;;;3.50;99.90;;;;;;4968931;28;20050;-83
2023/12/05 10:50:02;;;;;;;31.25;21.25;;;3.50;99.90;;;;;;4948749;28;20166;-82
2023/12/05 10:52:31;;;;;;;26.20;20.27;;;3.40;99.90;;;;;;4948732;28;20089;-83
2023/12/05 10:54:58;;;;;;;28.67;22.67;;;3.40;99.90;;;;;;4952229;28;20108;-83
2023/12/05 10:57:30;;;;;;;31.48;21.48;;;3.50;99.90;;;;;;4956572;28;20058;-83
2023/12/05 10:59:58;;;;;;;27.70;23.30;;;3.60;99.90;;;;;;4964231;28;20058;-83
2023/12/05 11:02:25;;;;;;;25.75;20.27;;;3.50;99.90;;;;;;4962115;28;20065;-83
2023/12/05 11:04:52;;;;;;;27.17;20.50;;;3.60;99.90;;;;;;4951118;28;20143;-84
2023/12/05 11:07:18;;;;;;;26.67;19.02;;;3.60;99.90;;;;;;4968865;28;20054;-82
2023/12/05 11:09:45;;;;;;;26.85;22.02;;;3.50;99.90;;;;;;4970811;28;20042;-82
2023/12/05 11:12:15;;;;;;;28.77;22.70;;;3.50;99.90;;;;;;4960769;28;20038;-82
2023/12/05 11:14:45;;;;;;;26.95;21.58;;;3.50;99.90;;;;;;4965487;28;20401;-83
2023/12/05 11:17:23;;;;;;;30.88;23.45;;;3.40;99.90;;;;;;4975390;28;20038;-83
2023/12/05 11:20:13;;;;;;;23.42;19.90;;;3.50;99.90;;;;;;4970923;28;20046;-83
2023/12/05 11:22:54;;;;;;;23.73;20.75;;;3.50;99.90;;;;;;4963546;28;20066;-82
2023/12/05 11:25:49;;;;;;;22.92;20.42;;;3.40;99.90;;;;;;4961212;28;20644;-82
2023/12/05 11:28:26;;;;;;;24.60;20.58;;;3.50;99.90;;;;;;4947766;28;20060;-83
2023/12/05 11:31:28;;;;;;;26.55;20.23;;;3.50;99.90;;;;;;4954576;28;20043;-84
2023/12/05 11:34:06;;;;;;;23.17;18.60;;;3.50;99.90;;;;;;4970861;28;20417;-82
2023/12/05 11:36:39;;;;;;;28.10;19.48;;;3.50;99.90;;;;;;4947649;28;20055;-85
2023/12/05 11:39:07;;;;;;;25.05;19.60;;;3.60;99.90;;;;;;4947931;28;20137;-84
2023/12/05 11:41:34;;;;;;;25.05;19.55;;;3.60;99.90;;;;;;4967772;28;20042;-84
2023/12/05 11:44:17;;;;;;;27.15;23.42;;;3.60;99.90;;;;;;4965972;28;20101;-84
2023/12/05 11:46:47;;;;;;;23.27;20.50;;;3.60;99.90;;;;;;4959506;28;20106;-84
2023/12/05 11:49:33;;;;;;;30.08;24.70;;;3.70;99.90;;;;;;4969517;28;20046;-83
2023/12/05 11:52:08;;;;;;;25.10;22.27;;;3.80;99.90;;;;;;4959842;28;20183;-83
2023/12/05 11:54:35;;;;;;;23.83;21.05;;;3.80;99.90;;;;;;4968029;28;20046;-84
2023/12/05 11:57:17;;;;;;;49.05;36.05;;;3.80;99.90;;;;;;4966254;28;20046;-83
2023/12/05 11:59:46;;;;;;;27.58;24.67;;;3.80;99.90;;;;;;4978299;28;20051;-84
2023/12/05 12:02:17;;;;;;;26.08;23.42;;;3.90;99.90;;;;;;4956219;28;20107;-84
2023/12/05 12:04:55;;;;;;;26.08;23.25;;;3.90;99.90;;;;;;4972383;28;20494;-84
2023/12/05 12:07:22;;;;;;;25.77;23.00;;;4.00;99.90;;;;;;4969587;28;20038;-84
2023/12/05 12:09:49;;;;;;;25.15;22.33;;;4.00;99.90;;;;;;4964973;28;20034;-84
2023/12/05 12:12:20;;;;;;;27.50;24.45;;;4.00;99.90;;;;;;4983436;28;20941;-85
2023/12/05 12:14:48;;;;;;;28.05;24.70;;;4.00;99.90;;;;;;4988406;28;20038;-85
2023/12/05 12:17:14;;;;;;;24.38;21.92;;;4.00;99.90;;;;;;4985212;28;20050;-84
2023/12/05 12:19:42;;;;;;;24.40;21.88;;;4.00;99.90;;;;;;4977122;28;20046;-83
2023/12/05 12:22:13;;;;;;;23.42;20.40;;;4.10;99.90;;;;;;4958993;28;20052;-83
2023/12/05 12:24:41;;;;;;;23.17;20.88;;;4.00;99.90;;;;;;4966282;28;20110;-84
2023/12/05 12:27:09;;;;;;;21.40;19.20;;;4.00;99.90;;;;;;4967911;28;20057;-83
2023/12/05 12:29:36;;;;;;;20.83;18.33;;;4.00;99.90;;;;;;4954828;28;20038;-83
2023/12/05 12:32:06;;;;;;;20.25;17.70;;;3.90;99.90;;;;;;4970140;28;20041;-82
2023/12/05 12:34:33;;;;;;;21.73;18.55;;;4.00;99.90;;;;;;4948637;28;20067;-84
2023/12/05 12:37:00;;;;;;;17.35;14.88;;;3.90;99.90;;;;;;4965738;28;20050;-84
2023/12/05 12:39:43;;;;;;;17.83;15.95;;;3.90;99.90;;;;;;4950809;28;20067;-83
2023/12/05 12:42:11;;;;;;;23.50;17.13;;;3.90;99.90;;;;;;4955438;28;20042;-83